KALO

Waterloo Regional Airport

Waterloo, Iowa, USA
METAR KALO 230254Z AUTO 12006KT 10SM CLR 19/16 A3004 RMK AO2 SLP171 T01890161 53013
Observed Flight Rules
May-23 @ 02:54 UTC (20 minutes ago) Visual Flight Rules
Wind Visibility Clouds
120° at 6 knots 10 miles
  • Clear skies
Temperatures Readings
Current 19°C / 66°F
Dewpoint 16°C / 61°F
Humidity 83%
Altimeter 30.04" Hg
Pressure 1017.1 hPa
Elevation 264
METAR KALO 230254Z AUTO 12006KT 10SM CLR 19/16 A3004 RMK AO2 SLP171 T01890161 53013
Observed Flight Rules
May-23 @ 02:54 UTC
(20 minutes ago)
VFR
Wind Visibility
120° at 6 knots 10 miles
Clouds
  • Clear skies
Temperature Dewpoint
19°C / 66°F 16°C / 61°F
Humidity Altimeter Pressure
83% 30.04" Hg 1017.1 hPa